Time;durP1;ratioP1;P1;durP2;ratioP2;P2;SDS_P1;SDS_P2;PMS_P1;PMS_P2;Temp;Humidity;BMP_temperature;BMP_pressure;BME280_temperature;BME280_humidity;BME280_pressure;Samples;Min_cycle;Max_cycle;Signal;HPM_P1;HPM_P2
2022/08/07 00:00:03;;;;;;;3.30;1.90;;;;;;;15.48;76.89;101024.90;130098;1268;108664;-70
2022/08/07 00:03:38;;;;;;;4.40;1.60;;;;;;;15.46;77.06;101025.65;129178;1268;108432;-70
2022/08/07 00:06:43;;;;;;;5.00;1.90;;;;;;;15.44;77.11;101027.65;130171;1267;109735;-70
2022/08/07 00:09:49;;;;;;;5.30;1.60;;;;;;;15.41;76.96;101029.05;130230;1268;109727;-70
2022/08/07 00:12:54;;;;;;;2.50;1.50;;;;;;;15.33;76.72;101032.37;130145;1266;109587;-69
2022/08/07 00:16:00;;;;;;;2.40;1.60;;;;;;;15.25;77.03;101039.34;130193;1268;109618;-69
2022/08/07 00:19:06;;;;;;;3.60;1.30;;;;;;;15.19;76.98;101042.65;130203;1268;107326;-69
2022/08/07 00:22:11;;;;;;;2.00;1.50;;;;;;;15.16;77.26;101047.52;130258;1268;108715;-69
2022/08/07 00:25:16;;;;;;;2.70;1.70;;;;;;;15.13;77.13;101052.63;130218;1268;108766;-69
2022/08/07 00:28:22;;;;;;;3.60;1.60;;;;;;;15.12;76.89;101050.46;130226;1268;108806;-69
2022/08/07 00:31:27;;;;;;;4.00;1.60;;;;;;;15.03;77.14;101052.42;130296;1268;108373;-69
2022/08/07 00:34:33;;;;;;;2.10;1.70;;;;;;;14.94;77.10;101046.41;130198;1268;108843;-69
2022/08/07 00:37:38;;;;;;;4.40;1.60;;;;;;;14.91;77.18;101050.83;130258;1268;108729;-69
2022/08/07 00:40:43;;;;;;;5.00;2.10;;;;;;;14.87;77.08;101049.84;130166;1268;108703;-69
2022/08/07 00:43:49;;;;;;;1.80;1.40;;;;;;;14.82;77.27;101052.71;130060;1268;109612;-69
2022/08/07 00:46:54;;;;;;;2.00;1.40;;;;;;;14.74;77.28;101054.05;130106;1268;109523;-71
2022/08/07 00:50:00;;;;;;;2.40;1.40;;;;;;;14.69;77.16;101052.41;130031;1268;108799;-69
2022/08/07 00:53:06;;;;;;;4.40;1.70;;;;;;;14.66;77.31;101052.06;130134;1268;108825;-69
2022/08/07 00:56:14;;;;;;;5.60;1.70;;;;;;;14.62;77.04;101046.58;130226;1268;108706;-69
2022/08/07 00:59:20;;;;;;;3.60;1.60;;;;;;;14.57;76.87;101048.17;130244;1268;108779;-70
2022/08/07 01:02:26;;;;;;;3.10;1.80;;;;;;;14.48;77.03;101052.46;130264;1268;107765;-69
2022/08/07 01:05:33;;;;;;;3.60;1.70;;;;;;;14.43;77.03;101055.52;130256;1268;107643;-70
2022/08/07 01:08:39;;;;;;;3.00;1.70;;;;;;;14.36;77.08;101060.63;130058;1268;108577;-69
2022/08/07 01:11:44;;;;;;;2.40;1.60;;;;;;;14.32;77.30;101064.86;130236;1268;109673;-69
2022/08/07 01:14:50;;;;;;;5.10;1.80;;;;;;;14.27;77.33;101067.16;129926;1268;108713;-70
2022/08/07 01:17:56;;;;;;;2.80;1.50;;;;;;;14.20;78.05;101068.70;130161;1267;108755;-69
2022/08/07 01:21:11;;;;;;;2.40;1.40;;;;;;;14.23;78.17;101065.70;130191;1268;108729;-69
2022/08/07 01:24:19;;;;;;;4.50;1.90;;;;;;;14.38;78.21;101066.17;130199;1268;109053;-69
2022/08/07 01:27:24;;;;;;;2.90;1.50;;;;;;;14.47;78.20;101064.86;130281;1268;108363;-69
2022/08/07 01:30:32;;;;;;;1.80;1.40;;;;;;;14.57;78.48;101066.43;130166;1268;109792;-69
2022/08/07 01:33:38;;;;;;;4.70;1.60;;;;;;;14.61;78.28;101061.36;130307;1268;109374;-69
2022/08/07 01:36:44;;;;;;;3.20;1.70;;;;;;;14.60;78.42;101056.30;130189;1268;108646;-69
2022/08/07 01:40:00;;;;;;;1.70;1.20;;;;;;;14.54;78.28;101051.63;130128;1268;109598;-69
2022/08/07 01:43:11;;;;;;;4.60;1.70;;;;;;;14.49;78.20;101056.03;130060;1268;108852;-70
2022/08/07 01:46:17;;;;;;;4.70;2.10;;;;;;;14.46;78.36;101059.27;129981;1268;108933;-69
2022/08/07 01:49:24;;;;;;;5.00;2.00;;;;;;;14.35;78.66;101064.83;130260;1268;109037;-69
2022/08/07 01:52:34;;;;;;;3.80;2.50;;;;;;;14.19;79.37;101072.25;130212;1268;108863;-69
2022/08/07 01:55:46;;;;;;;3.10;2.20;;;;;;;14.07;79.36;101069.01;130230;1268;107717;-69
2022/08/07 01:59:00;;;;;;;3.70;2.00;;;;;;;13.98;79.43;101067.00;130219;1268;108981;-69
2022/08/07 02:02:11;;;;;;;2.40;1.80;;;;;;;13.97;79.28;101062.34;130020;1267;109476;-69
2022/08/07 02:05:23;;;;;;;3.30;1.70;;;;;;;13.98;79.25;101059.34;130075;1268;109379;-71
2022/08/07 02:08:30;;;;;;;2.40;1.80;;;;;;;14.00;79.01;101058.09;130216;1268;109575;-69
2022/08/07 02:11:39;;;;;;;2.20;1.70;;;;;;;13.97;78.76;101058.02;130199;1268;109631;-69
2022/08/07 02:14:47;;;;;;;3.20;1.90;;;;;;;13.92;78.27;101054.19;130263;1268;108673;-69
2022/08/07 02:17:59;;;;;;;2.80;2.00;;;;;;;13.86;78.43;101051.27;130183;1268;109563;-69
2022/08/07 02:21:07;;;;;;;3.00;1.90;;;;;;;13.76;78.35;101047.73;129943;1268;108865;-69
2022/08/07 02:24:15;;;;;;;6.20;2.20;;;;;;;13.65;78.27;101052.81;130176;1268;108064;-69
2022/08/07 02:27:24;;;;;;;4.60;1.70;;;;;;;13.55;78.49;101050.24;130177;1267;108655;-69
2022/08/07 02:30:31;;;;;;;1.60;1.30;;;;;;;13.49;78.50;101051.57;130136;1268;109844;-70
2022/08/07 02:33:39;;;;;;;3.00;1.50;;;;;;;13.45;78.33;101052.61;130228;1268;108946;-69
2022/08/07 02:36:46;;;;;;;1.90;1.30;;;;;;;13.42;78.25;101046.84;130258;1268;108834;-69
2022/08/07 02:39:56;;;;;;;2.70;1.50;;;;;;;13.38;78.16;101048.20;130173;1268;109527;-69
2022/08/07 02:43:04;;;;;;;3.00;1.70;;;;;;;13.29;78.09;101049.34;130266;1267;108699;-70
2022/08/07 02:46:11;;;;;;;2.20;1.70;;;;;;;13.25;78.07;101054.58;130043;1268;108736;-69
2022/08/07 02:49:17;;;;;;;2.00;1.60;;;;;;;13.21;78.04;101051.61;130217;1268;108866;-69
2022/08/07 02:52:30;;;;;;;2.20;1.90;;;;;;;13.14;77.98;101053.30;130219;1267;109540;-69
2022/08/07 02:55:37;;;;;;;2.80;1.50;;;;;;;13.05;78.00;101061.15;130135;1267;110001;-69
2022/08/07 02:58:46;;;;;;;3.90;1.40;;;;;;;12.99;78.05;101061.64;130277;1268;108830;-69
2022/08/07 03:01:52;;;;;;;5.90;1.70;;;;;;;12.95;77.96;101061.63;130203;1267;108796;-69
2022/08/07 03:05:01;;;;;;;2.10;1.40;;;;;;;12.94;77.97;101061.85;130188;1268;108736;-69
2022/08/07 03:08:08;;;;;;;4.10;1.70;;;;;;;12.95;77.80;101061.57;130190;1267;108834;-69
2022/08/07 03:11:15;;;;;;;2.80;1.80;;;;;;;12.94;77.88;101063.33;130250;1268;108780;-69
2022/08/07 03:14:21;;;;;;;3.30;2.00;;;;;;;12.91;77.83;101065.54;130200;1268;108998;-69
2022/08/07 03:17:27;;;;;;;9.30;1.90;;;;;;;12.90;77.66;101067.29;130203;1267;109123;-69
2022/08/07 03:20:34;;;;;;;2.20;1.70;;;;;;;12.84;77.53;101071.73;130198;1267;108647;-69
2022/08/07 03:23:41;;;;;;;4.10;1.90;;;;;;;12.80;77.71;101070.96;130175;1268;108940;-69
2022/08/07 03:26:50;;;;;;;2.40;1.60;;;;;;;12.76;77.68;101070.72;130199;1267;108850;-69
2022/08/07 03:29:58;;;;;;;1.90;1.30;;;;;;;12.74;77.44;101075.92;130253;1267;108733;-69
2022/08/07 03:33:07;;;;;;;2.80;1.70;;;;;;;12.74;77.66;101074.68;130146;1268;108576;-69
2022/08/07 03:36:14;;;;;;;2.20;1.60;;;;;;;12.74;77.58;101074.89;130177;1268;108968;-69
2022/08/07 03:39:22;;;;;;;3.60;1.60;;;;;;;12.76;77.53;101073.79;130184;1268;107998;-69
2022/08/07 03:42:28;;;;;;;2.90;1.50;;;;;;;12.80;77.43;101075.04;130141;1268;108931;-69
2022/08/07 03:45:35;;;;;;;3.50;1.80;;;;;;;12.81;77.48;101074.57;130242;1267;108632;-69
2022/08/07 03:48:46;;;;;;;3.80;1.80;;;;;;;12.83;77.41;101080.45;130176;1268;108789;-69
2022/08/07 03:51:52;;;;;;;2.90;1.60;;;;;;;12.83;77.51;101082.95;130200;1268;108750;-69
2022/08/07 03:55:00;;;;;;;3.60;1.80;;;;;;;12.86;77.49;101083.48;130207;1267;108770;-69
2022/08/07 03:58:07;;;;;;;1.80;1.30;;;;;;;12.97;77.49;101087.14;130172;1268;108803;-69
2022/08/07 04:01:18;;;;;;;1.70;1.40;;;;;;;13.12;77.67;101086.95;130175;1268;108748;-69
2022/08/07 04:04:25;;;;;;;1.70;1.40;;;;;;;13.34;77.48;101087.66;130241;1268;108660;-69
2022/08/07 04:07:34;;;;;;;2.70;1.60;;;;;;;13.60;77.44;101085.32;130171;1268;108896;-69
2022/08/07 04:10:42;;;;;;;1.90;1.50;;;;;;;13.87;77.27;101093.23;130195;1268;108757;-69
2022/08/07 04:13:49;;;;;;;2.60;1.60;;;;;;;14.15;77.21;101093.52;130120;1268;108765;-69
2022/08/07 04:16:55;;;;;;;3.80;1.80;;;;;;;14.38;76.94;101094.40;130144;1268;108810;-69
2022/08/07 04:20:01;;;;;;;4.50;1.80;;;;;;;14.58;76.92;101098.87;130180;1268;108674;-69
2022/08/07 04:23:10;;;;;;;3.80;1.60;;;;;;;14.78;76.76;101098.39;130128;1268;108765;-70
2022/08/07 04:26:17;;;;;;;5.40;1.60;;;;;;;14.97;76.73;101101.28;130067;1268;108787;-70
2022/08/07 04:29:23;;;;;;;5.20;1.70;;;;;;;15.17;76.73;101096.79;130168;1268;108954;-69
2022/08/07 04:32:30;;;;;;;2.00;1.60;;;;;;;15.41;76.62;101096.63;130137;1268;108993;-69
2022/08/07 04:35:37;;;;;;;3.20;1.90;;;;;;;15.62;76.93;101097.58;130288;1268;108893;-69
2022/08/07 04:38:47;;;;;;;2.20;1.80;;;;;;;15.87;76.72;101104.61;130232;1268;107901;-70
2022/08/07 04:41:52;;;;;;;4.50;1.90;;;;;;;16.09;76.64;101103.85;130084;1268;108620;-70
2022/08/07 04:45:01;;;;;;;3.50;1.80;;;;;;;16.22;76.70;101104.23;130062;1268;108238;-69
2022/08/07 04:48:13;;;;;;;2.60;1.90;;;;;;;16.33;76.72;101113.93;130070;1265;109534;-69
2022/08/07 04:51:27;;;;;;;4.20;2.20;;;;;;;16.42;76.64;101117.29;130270;1268;108896;-69
2022/08/07 04:54:39;;;;;;;3.50;2.00;;;;;;;16.52;76.68;101116.02;130171;1267;109577;-69
2022/08/07 04:57:52;;;;;;;5.90;2.20;;;;;;;16.53;76.81;101118.38;130167;1268;108666;-69
2022/08/07 05:01:03;;;;;;;3.20;2.10;;;;;;;16.61;76.90;101124.73;130154;1268;108876;-69
2022/08/07 05:04:14;;;;;;;2.50;1.80;;;;;;;16.73;76.84;101127.34;130198;1268;108791;-69
2022/08/07 05:07:26;;;;;;;3.20;1.90;;;;;;;16.86;76.99;101122.60;130151;1268;108954;-69
2022/08/07 05:10:37;;;;;;;2.00;1.70;;;;;;;17.02;76.03;101126.36;130171;1268;108837;-70
2022/08/07 05:13:49;;;;;;;3.60;1.90;;;;;;;17.11;76.09;101128.05;130169;1268;109574;-69
2022/08/07 05:16:57;;;;;;;2.40;1.80;;;;;;;17.30;76.28;101128.91;130186;1268;108639;-68
2022/08/07 05:20:05;;;;;;;3.00;2.10;;;;;;;17.51;76.25;101129.48;130210;1268;107817;-70
2022/08/07 05:23:15;;;;;;;2.60;2.30;;;;;;;17.72;76.60;101131.65;130204;1268;108874;-70
2022/08/07 05:26:26;;;;;;;3.40;2.00;;;;;;;17.83;75.33;101130.02;130161;1268;109285;-70
2022/08/07 05:29:38;;;;;;;5.60;2.50;;;;;;;17.81;75.50;101134.63;130173;1268;108798;-68
2022/08/07 05:32:46;;;;;;;3.70;2.40;;;;;;;17.78;74.27;101141.46;130061;1268;107313;-69
2022/08/07 05:35:54;;;;;;;3.50;2.30;;;;;;;17.69;75.20;101139.96;131745;1265;108959;-70
2022/08/07 05:39:02;;;;;;;3.00;2.10;;;;;;;17.68;75.22;101139.20;130270;1268;109057;-70
2022/08/07 05:42:08;;;;;;;3.90;2.00;;;;;;;17.51;74.69;101143.29;130078;1268;108765;-70
2022/08/07 05:45:16;;;;;;;2.70;2.20;;;;;;;17.33;74.94;101145.89;130183;1268;108747;-70
2022/08/07 05:48:22;;;;;;;3.80;2.00;;;;;;;17.33;75.78;101141.98;130167;1267;108761;-70
2022/08/07 05:51:29;;;;;;;2.90;2.40;;;;;;;17.45;75.88;101138.05;130181;1268;108745;-71
2022/08/07 05:54:35;;;;;;;3.60;2.60;;;;;;;17.56;75.74;101139.27;130085;1268;108700;-70
2022/08/07 05:57:41;;;;;;;3.40;2.40;;;;;;;17.67;75.71;101138.36;130386;1267;108692;-71
2022/08/07 06:00:49;;;;;;;4.20;2.10;;;;;;;17.67;75.15;101139.61;130133;1268;107741;-70
2022/08/07 06:03:57;;;;;;;4.10;2.20;;;;;;;17.78;75.55;101138.60;130268;1268;108704;-71
2022/08/07 06:07:04;;;;;;;4.40;2.40;;;;;;;17.82;74.96;101133.23;130208;1267;108858;-71
2022/08/07 06:10:13;;;;;;;4.10;2.20;;;;;;;17.85;75.23;101131.83;130244;1267;108752;-70
2022/08/07 06:13:19;;;;;;;3.10;1.90;;;;;;;17.98;75.05;101129.27;130218;1268;108804;-69
2022/08/07 06:16:32;;;;;;;4.80;2.50;;;;;;;18.01;74.57;101127.83;130194;1268;108836;-71
2022/08/07 06:19:40;;;;;;;3.40;1.90;;;;;;;18.02;74.13;101132.85;130239;1268;108911;-71
2022/08/07 06:22:49;;;;;;;2.70;1.50;;;;;;;17.98;74.11;101132.48;130267;1267;108699;-68
2022/08/07 06:26:03;;;;;;;2.90;1.70;;;;;;;18.01;73.83;101132.46;130157;1267;108661;-70
2022/08/07 06:29:09;;;;;;;3.30;1.90;;;;;;;17.99;72.80;101132.37;130143;1268;109008;-70
2022/08/07 06:32:15;;;;;;;3.10;2.30;;;;;;;17.88;73.59;101140.52;130153;1268;107090;-71
2022/08/07 06:35:20;;;;;;;2.90;1.90;;;;;;;17.91;73.95;101142.46;130149;1267;109546;-71
2022/08/07 06:38:26;;;;;;;2.90;1.30;;;;;;;17.97;73.61;101136.04;130170;1268;107545;-70
2022/08/07 06:41:38;;;;;;;3.00;1.60;;;;;;;18.01;72.89;101135.91;130320;1267;108764;-71
2022/08/07 06:44:46;;;;;;;2.80;1.30;;;;;;;17.96;71.97;101140.80;130209;1268;109849;-71
2022/08/07 06:47:51;;;;;;;4.00;1.50;;;;;;;17.97;71.63;101140.80;130243;1268;108760;-70
2022/08/07 06:51:02;;;;;;;2.70;1.30;;;;;;;17.93;70.61;101147.23;130192;1267;108839;-71
2022/08/07 06:54:10;;;;;;;4.70;1.50;;;;;;;17.89;71.80;101153.18;130193;1267;108835;-71
2022/08/07 06:57:16;;;;;;;3.50;1.50;;;;;;;17.94;71.40;101151.64;130189;1267;108794;-71
2022/08/07 07:00:22;;;;;;;2.10;1.40;;;;;;;17.96;71.36;101152.34;130201;1267;107665;-71
2022/08/07 07:03:28;;;;;;;2.10;1.30;;;;;;;18.05;71.00;101151.10;130243;1267;108953;-71
2022/08/07 07:06:33;;;;;;;2.70;1.10;;;;;;;18.10;70.34;101152.18;130185;1267;108848;-71
2022/08/07 07:09:46;;;;;;;2.00;0.90;;;;;;;18.15;70.43;101153.89;130313;1267;108638;-71
2022/08/07 07:12:58;;;;;;;3.00;1.20;;;;;;;18.25;70.01;101152.90;130237;1267;108999;-71
2022/08/07 07:16:07;;;;;;;1.80;1.10;;;;;;;18.29;69.94;101155.15;130328;1267;109719;-72
2022/08/07 07:19:15;;;;;;;4.00;1.00;;;;;;;18.23;69.38;101155.40;130318;1267;108296;-71
2022/08/07 07:22:21;;;;;;;1.40;0.80;;;;;;;18.19;69.33;101153.17;130369;1267;107059;-71
2022/08/07 07:25:27;;;;;;;4.70;1.20;;;;;;;18.25;66.34;101154.32;130213;1267;108311;-71
2022/08/07 07:28:37;;;;;;;2.20;0.90;;;;;;;18.30;67.29;101151.61;130345;1267;107725;-71
2022/08/07 07:31:47;;;;;;;3.00;0.90;;;;;;;18.47;67.29;101147.58;130304;1267;108943;-71
2022/08/07 07:34:56;;;;;;;2.60;1.00;;;;;;;18.57;67.46;101146.80;130210;1267;108887;-71
2022/08/07 07:38:04;;;;;;;2.70;0.80;;;;;;;18.57;67.36;101143.94;130186;1267;108257;-70
2022/08/07 07:41:15;;;;;;;2.00;0.90;;;;;;;18.60;67.45;101145.35;130186;1267;108812;-71
2022/08/07 07:44:23;;;;;;;2.10;1.00;;;;;;;18.51;66.78;101143.92;130210;1267;107319;-71
2022/08/07 07:47:29;;;;;;;3.70;2.40;;;;;;;18.48;67.11;101142.60;130326;1267;107319;-71
2022/08/07 07:50:36;;;;;;;2.90;1.10;;;;;;;18.75;67.52;101146.02;130013;1267;110259;-71
2022/08/07 07:53:43;;;;;;;1.50;1.30;;;;;;;19.06;67.29;101139.66;130301;1268;109036;-71
2022/08/07 07:56:51;;;;;;;1.90;1.00;;;;;;;19.33;66.10;101137.19;130342;1267;108907;-71
2022/08/07 07:59:58;;;;;;;2.60;0.80;;;;;;;19.34;65.12;101141.06;130177;1268;108879;-71
2022/08/07 08:03:08;;;;;;;2.80;1.10;;;;;;;19.49;65.74;101138.52;130330;1268;108781;-71
2022/08/07 08:06:14;;;;;;;1.60;0.90;;;;;;;19.67;64.81;101135.41;130230;1268;108797;-71
2022/08/07 08:09:26;;;;;;;2.10;1.00;;;;;;;19.90;64.65;101135.25;130149;1268;109307;-71
2022/08/07 08:12:33;;;;;;;4.10;1.40;;;;;;;20.22;65.03;101137.31;130333;1267;109678;-71
2022/08/07 08:15:40;;;;;;;1.80;1.30;;;;;;;20.49;63.46;101132.10;130254;1266;107828;-71
2022/08/07 08:18:48;;;;;;;2.00;1.10;;;;;;;20.66;63.72;101133.56;130196;1268;107871;-71
2022/08/07 08:28:45;;;;;;;13.40;6.40;;;;;;;20.53;59.02;101140.24;130213;1268;107474;-70
2022/08/07 08:31:52;;;;;;;51.10;24.90;;;;;;;20.45;59.83;101138.41;130217;1268;108110;-70
2022/08/07 08:35:19;;;;;;;10.40;5.10;;;;;;;20.22;59.44;101146.94;130217;1268;108758;-70
2022/08/07 08:38:38;;;;;;;35.90;20.20;;;;;;;19.90;60.18;101146.46;130178;1268;108719;-70
2022/08/07 08:41:51;;;;;;;8.60;5.50;;;;;;;19.75;60.26;101145.11;130061;1268;107452;-71
2022/08/07 08:45:03;;;;;;;7.80;5.60;;;;;;;19.80;59.82;101142.11;130202;1267;108863;-70
2022/08/07 08:48:18;;;;;;;5.60;2.90;;;;;;;19.80;58.17;101138.95;130243;1268;107255;-70
2022/08/07 08:51:31;;;;;;;2.40;1.60;;;;;;;19.88;59.96;101137.25;130261;1268;108861;-70
2022/08/07 08:54:46;;;;;;;1.40;1.00;;;;;;;20.05;60.19;101137.13;130210;1268;109734;-70
2022/08/07 08:58:01;;;;;;;2.70;1.10;;;;;;;20.18;57.49;101134.48;130328;1268;107545;-71
2022/08/07 09:01:17;;;;;;;2.90;1.00;;;;;;;20.00;57.73;101137.94;130334;1267;108751;-70
2022/08/07 09:04:30;;;;;;;1.30;0.90;;;;;;;20.05;57.54;101140.33;130236;1268;108829;-70
2022/08/07 09:07:45;;;;;;;1.40;0.80;;;;;;;20.20;57.35;101134.57;130293;1267;108425;-71
2022/08/07 09:11:01;;;;;;;1.40;0.80;;;;;;;20.52;58.44;101135.11;130310;1267;109877;-70
2022/08/07 09:14:14;;;;;;;2.40;1.80;;;;;;;20.91;58.02;101135.10;130298;1268;107649;-70
2022/08/07 09:17:35;;;;;;;2.80;1.70;;;;;;;21.02;57.96;101131.65;130239;1267;108616;-70
2022/08/07 09:20:54;;;;;;;3.00;1.50;;;;;;;20.86;56.15;101137.33;130212;1268;108574;-70
2022/08/07 09:24:07;;;;;;;2.50;1.20;;;;;;;20.40;56.15;101135.42;130192;1268;108730;-70
2022/08/07 09:27:24;;;;;;;3.60;2.90;;;;;;;20.02;57.39;101133.34;130211;1267;109730;-71
2022/08/07 09:30:41;;;;;;;3.50;2.70;;;;;;;19.77;57.61;101129.16;130281;1267;108479;-70
2022/08/07 09:34:16;;;;;;;3.90;3.20;;;;;;;19.55;57.64;101126.20;130110;1268;109598;-70
2022/08/07 09:37:32;;;;;;;3.90;2.30;;;;;;;19.52;58.31;101121.50;130378;1265;109750;-71
2022/08/07 09:40:52;;;;;;;3.10;1.50;;;;;;;19.79;58.02;101115.98;130236;1268;109601;-70
2022/08/07 09:44:06;;;;;;;5.00;1.10;;;;;;;20.19;58.26;101106.43;130282;1268;108244;-71
2022/08/07 09:47:19;;;;;;;1.50;1.00;;;;;;;20.56;57.63;101102.44;130276;1267;107709;-74
2022/08/07 09:50:36;;;;;;;1.10;1.00;;;;;;;20.86;57.96;101100.55;130319;1267;107668;-74
2022/08/07 09:53:45;;;;;;;2.60;1.40;;;;;;;21.12;57.47;101094.45;130405;1268;108966;-74
2022/08/07 09:57:22;;;;;;;3.20;1.70;;;;;;;21.24;54.99;101099.80;130333;1268;108563;-74
2022/08/07 10:00:38;;;;;;;2.70;1.80;;;;;;;21.01;54.74;101096.31;130336;1268;107677;-75
2022/08/07 10:04:14;;;;;;;4.40;2.20;;;;;;;20.89;55.93;101102.77;130242;1268;108745;-74
2022/08/07 10:07:44;;;;;;;5.70;3.10;;;;;;;20.72;54.16;101105.88;130367;1268;108168;-75
2022/08/07 10:11:01;;;;;;;2.70;1.50;;;;;;;20.41;54.55;101101.11;130251;1268;108929;-74
2022/08/07 10:14:21;;;;;;;1.80;1.10;;;;;;;20.43;56.21;101096.48;130279;1268;108453;-74
2022/08/07 10:17:47;;;;;;;1.50;1.00;;;;;;;20.68;55.47;101098.48;130394;1267;108666;-74
2022/08/07 10:21:10;;;;;;;3.30;1.00;;;;;;;20.73;52.06;101098.48;130366;1267;108725;-74
2022/08/07 10:24:33;;;;;;;1.70;1.20;;;;;;;20.75;54.66;101091.15;130330;1268;108849;-74
2022/08/07 10:27:52;;;;;;;1.30;1.00;;;;;;;21.23;55.59;101084.58;130314;1267;108672;-75
2022/08/07 10:31:21;;;;;;;1.50;1.20;;;;;;;21.61;53.68;101077.68;130348;1268;108940;-75
2022/08/07 10:34:40;;;;;;;3.00;1.50;;;;;;;21.65;52.82;101077.52;130363;1268;108752;-75
2022/08/07 10:38:02;;;;;;;1.80;0.90;;;;;;;21.24;51.53;101077.64;130320;1268;108894;-74
2022/08/07 10:41:15;;;;;;;1.70;1.10;;;;;;;20.84;51.77;101074.30;130368;1267;108931;-74
2022/08/07 10:44:32;;;;;;;1.30;1.00;;;;;;;20.50;52.70;101077.77;130316;1267;108773;-74
2022/08/07 10:47:46;;;;;;;1.30;1.10;;;;;;;20.45;53.57;101070.19;130188;1268;108818;-74
2022/08/07 10:50:56;;;;;;;1.50;1.00;;;;;;;20.65;53.22;101065.75;130342;1268;108814;-75
2022/08/07 10:54:12;;;;;;;1.90;1.10;;;;;;;20.79;53.26;101065.58;130328;1267;107991;-74
2022/08/07 10:57:26;;;;;;;1.70;1.00;;;;;;;20.93;52.36;101059.18;130359;1267;107841;-74
2022/08/07 11:00:42;;;;;;;1.90;0.90;;;;;;;21.15;52.73;101055.73;130349;1267;107135;-75
2022/08/07 11:03:55;;;;;;;1.60;1.00;;;;;;;21.40;52.04;101051.16;130174;1267;108538;-75
2022/08/07 11:07:10;;;;;;;2.20;1.10;;;;;;;21.46;51.77;101049.46;130380;1267;108684;-73
2022/08/07 11:10:29;;;;;;;2.30;1.30;;;;;;;21.19;50.60;101049.55;130385;1267;107488;-73
2022/08/07 11:13:42;;;;;;;3.00;1.20;;;;;;;20.86;50.95;101046.33;130316;1267;108877;-73
2022/08/07 11:16:54;;;;;;;4.40;3.00;;;;;;;20.47;51.22;101046.72;130377;1267;107070;-73
2022/08/07 11:20:03;;;;;;;4.00;2.50;;;;;;;20.26;51.95;101048.70;130297;1267;108853;-74
2022/08/07 11:23:16;;;;;;;2.80;1.80;;;;;;;20.24;52.18;101044.04;130313;1267;108703;-73
2022/08/07 11:26:31;;;;;;;2.50;1.50;;;;;;;20.20;52.66;101039.70;130264;1268;108651;-73
2022/08/07 11:29:41;;;;;;;2.20;1.30;;;;;;;20.34;52.65;101034.24;130401;1267;108820;-74
2022/08/07 11:32:57;;;;;;;2.40;1.00;;;;;;;20.51;52.09;101033.89;130350;1267;108695;-74
2022/08/07 11:36:18;;;;;;;1.50;0.90;;;;;;;20.64;51.41;101037.25;130497;1267;108700;-74
2022/08/07 11:39:39;;;;;;;1.20;1.00;;;;;;;20.71;51.31;101031.09;130423;1267;108855;-74
2022/08/07 11:42:53;;;;;;;1.90;1.10;;;;;;;20.91;51.43;101031.95;130421;1267;107664;-74
2022/08/07 11:46:18;;;;;;;2.80;1.20;;;;;;;21.06;51.27;101033.23;130376;1267;108834;-74
2022/08/07 11:49:40;;;;;;;0.90;0.90;;;;;;;21.18;49.85;101030.92;130436;1267;108717;-74
2022/08/07 11:53:02;;;;;;;1.90;1.00;;;;;;;21.30;50.36;101029.55;130414;1267;108477;-74
2022/08/07 11:56:20;;;;;;;2.60;1.20;;;;;;;21.37;49.95;101030.86;130363;1267;108904;-74
2022/08/07 11:59:40;;;;;;;1.70;1.00;;;;;;;21.45;49.37;101027.85;130361;1267;108674;-74
2022/08/07 12:03:25;;;;;;;1.60;1.10;;;;;;;21.42;50.35;101020.44;129216;1267;1457149;-74
2022/08/07 12:06:44;;;;;;;1.90;1.20;;;;;;;21.45;49.82;101018.16;130487;1267;106523;-74
2022/08/07 12:10:02;;;;;;;1.70;1.10;;;;;;;21.39;48.82;101014.14;130270;1268;108773;-74
2022/08/07 12:13:16;;;;;;;1.80;1.10;;;;;;;21.28;48.00;101015.70;130372;1267;108798;-74
2022/08/07 12:16:26;;;;;;;1.90;1.20;;;;;;;21.14;48.48;101018.18;130325;1267;109078;-74
2022/08/07 12:19:45;;;;;;;1.40;1.00;;;;;;;21.09;48.69;101012.61;130357;1267;108581;-74
2022/08/07 12:23:04;;;;;;;1.30;0.90;;;;;;;21.14;49.62;101015.10;130390;1268;107593;-74
2022/08/07 12:26:19;;;;;;;2.30;0.90;;;;;;;21.29;50.20;101007.23;130337;1267;108749;-74
2022/08/07 12:29:32;;;;;;;1.70;0.80;;;;;;;21.36;49.14;101001.83;130384;1267;108674;-74
2022/08/07 12:32:42;;;;;;;1.40;1.00;;;;;;;21.37;49.57;101005.75;130370;1268;109007;-74
2022/08/07 12:35:51;;;;;;;1.20;0.80;;;;;;;21.44;49.65;100998.73;130349;1267;109019;-74
2022/08/07 12:38:59;;;;;;;1.40;0.90;;;;;;;21.20;48.09;100998.25;130375;1268;108707;-74
2022/08/07 12:42:07;;;;;;;1.40;0.90;;;;;;;21.16;49.69;100997.02;130168;1268;108539;-74
2022/08/07 12:45:17;;;;;;;1.10;1.00;;;;;;;21.35;49.08;100993.55;130377;1268;108811;-74
2022/08/07 12:48:36;;;;;;;1.00;0.80;;;;;;;21.37;48.29;100991.30;130373;1268;108807;-74
2022/08/07 12:51:54;;;;;;;2.20;0.80;;;;;;;21.29;48.02;100990.58;130400;1268;108725;-74
2022/08/07 12:55:04;;;;;;;1.90;0.90;;;;;;;21.29;47.87;100993.13;130412;1268;108866;-74
2022/08/07 12:58:15;;;;;;;1.60;0.70;;;;;;;21.26;47.49;100989.14;130367;1268;108862;-74
2022/08/07 13:01:35;;;;;;;1.20;0.90;;;;;;;21.15;48.14;100990.09;130368;1268;109647;-74
2022/08/07 13:05:00;;;;;;;0.90;0.80;;;;;;;21.14;47.63;100986.54;130370;1267;108806;-74
2022/08/07 13:08:33;;;;;;;2.00;0.70;;;;;;;21.11;47.18;100983.15;130380;1268;108467;-74
2022/08/07 13:11:57;;;;;;;0.60;0.60;;;;;;;21.10;46.79;100982.18;130382;1268;108755;-74
2022/08/07 13:15:10;;;;;;;1.20;0.70;;;;;;;21.11;47.07;100982.18;130400;1267;108801;-74
2022/08/07 13:18:27;;;;;;;1.00;0.80;;;;;;;21.16;47.13;100973.48;130301;1268;108974;-74
2022/08/07 13:21:41;;;;;;;1.40;0.70;;;;;;;21.27;47.66;100961.73;130373;1268;108703;-74
2022/08/07 13:24:56;;;;;;;1.80;0.80;;;;;;;21.36;46.46;100960.77;130547;1267;108936;-75
2022/08/07 13:28:06;;;;;;;0.90;0.70;;;;;;;21.33;46.27;100960.17;130258;1268;108839;-74
2022/08/07 13:31:19;;;;;;;1.50;0.70;;;;;;;21.29;46.55;100964.59;130476;1267;107189;-74
2022/08/07 13:34:35;;;;;;;1.80;0.70;;;;;;;21.35;46.97;100962.07;130495;1268;108708;-74
2022/08/07 13:37:49;;;;;;;0.80;0.70;;;;;;;21.48;46.73;100956.89;130232;1269;108907;-74
2022/08/07 13:41:04;;;;;;;2.20;0.60;;;;;;;21.47;46.11;100958.09;130333;1267;108990;-74
2022/08/07 13:44:11;;;;;;;1.60;0.80;;;;;;;21.31;45.99;100949.33;130373;1267;108915;-73
2022/08/07 13:47:19;;;;;;;1.40;0.80;;;;;;;21.33;47.24;100950.92;130401;1267;107214;-74
2022/08/07 13:50:26;;;;;;;1.00;0.80;;;;;;;21.48;47.65;100941.72;130368;1267;107172;-74
2022/08/07 13:53:37;;;;;;;0.70;0.60;;;;;;;21.55;46.96;100947.53;130338;1267;108812;-74
2022/08/07 13:56:46;;;;;;;0.70;0.60;;;;;;;21.52;46.84;100942.52;130411;1268;108660;-74
2022/08/07 13:59:54;;;;;;;1.50;0.70;;;;;;;21.41;46.40;100944.75;130347;1268;108617;-75
2022/08/07 14:03:01;;;;;;;1.20;0.70;;;;;;;21.30;45.68;100945.23;130342;1267;108968;-74
2022/08/07 14:06:08;;;;;;;1.70;0.70;;;;;;;21.18;46.73;100938.44;130420;1268;108502;-74
2022/08/07 14:09:21;;;;;;;0.80;0.60;;;;;;;21.15;46.83;100933.14;130373;1268;108113;-74
2022/08/07 14:12:33;;;;;;;1.20;0.60;;;;;;;21.22;46.46;100936.83;130308;1267;109348;-74
2022/08/07 14:15:42;;;;;;;1.50;0.60;;;;;;;21.23;46.14;100934.53;130364;1268;108719;-74
2022/08/07 14:18:50;;;;;;;1.10;0.50;;;;;;;21.29;46.77;100928.81;130323;1267;108609;-74
2022/08/07 14:21:58;;;;;;;1.20;0.70;;;;;;;21.46;47.13;100920.27;130461;1268;109084;-74
2022/08/07 14:25:10;;;;;;;1.60;0.70;;;;;;;21.58;46.85;100928.02;130473;1268;108955;-73
2022/08/07 14:28:17;;;;;;;1.20;0.70;;;;;;;21.59;45.89;100923.59;130471;1268;108329;-75
2022/08/07 14:31:25;;;;;;;0.90;0.50;;;;;;;21.51;45.22;100922.00;130496;1268;108681;-76
2022/08/07 14:34:32;;;;;;;2.70;0.70;;;;;;;21.42;45.41;100914.41;130493;1268;108481;-73